createdAt,value
2018-02-17T00:00:19.964Z,13.00
2018-02-17T00:02:48.381Z,13.25
2018-02-17T00:05:15.977Z,13.15
2018-02-17T00:07:44.333Z,14.05
2018-02-17T00:10:11.978Z,15.48
2018-02-17T00:12:39.588Z,14.93
2018-02-17T00:15:07.198Z,14.07
2018-02-17T00:17:35.593Z,13.82
2018-02-17T00:20:03.193Z,12.20
2018-02-17T00:22:30.817Z,12.77
2018-02-17T00:24:58.412Z,13.02
2018-02-17T00:27:26.041Z,13.07
2018-02-17T00:29:54.421Z,12.05
2018-02-17T00:32:22.053Z,12.18
2018-02-17T00:34:50.417Z,13.27
2018-02-17T00:37:18.810Z,13.02
2018-02-17T00:39:46.413Z,12.30
2018-02-17T00:42:14.044Z,12.20
2018-02-17T00:44:41.644Z,12.30
2018-02-17T00:47:09.338Z,12.90
2018-02-17T00:49:36.936Z,12.27
2018-02-17T00:52:05.345Z,12.45
2018-02-17T00:54:32.944Z,12.52
2018-02-17T00:57:01.316Z,11.25
2018-02-17T00:59:28.950Z,10.98
2018-02-17T01:01:57.308Z,11.45
2018-02-17T01:04:24.935Z,10.45
2018-02-17T01:06:52.545Z,12.02
2018-02-17T01:09:20.164Z,11.90
2018-02-17T01:11:48.532Z,12.23
2018-02-17T01:14:16.188Z,12.60
2018-02-17T01:16:43.798Z,12.20
2018-02-17T01:19:11.405Z,13.27
2018-02-17T01:21:39.025Z,13.90
2018-02-17T01:24:07.396Z,13.98
2018-02-17T01:26:35.025Z,13.80
2018-02-17T01:29:03.396Z,12.80
2018-02-17T01:31:31.793Z,10.90
2018-02-17T01:33:59.433Z,10.35
2018-02-17T01:36:27.044Z,11.63
2018-02-17T01:38:54.645Z,12.02
2018-02-17T01:41:22.265Z,11.15
2018-02-17T01:43:49.865Z,11.00
2018-02-17T01:46:19.229Z,11.12
2018-02-17T01:48:46.865Z,11.60
2018-02-17T01:51:14.464Z,11.63
2018-02-17T01:53:42.860Z,11.05
2018-02-17T01:56:10.453Z,12.05
2018-02-17T01:58:38.064Z,10.55
2018-02-17T02:01:05.717Z,12.00
2018-02-17T02:03:33.313Z,10.15
2018-02-17T02:06:00.920Z,10.15
2018-02-17T02:08:28.549Z,10.98
2018-02-17T02:10:56.179Z,9.85
2018-02-17T02:13:23.777Z,10.20
2018-02-17T02:15:51.377Z,10.80
2018-02-17T02:18:19.000Z,10.18
2018-02-17T02:20:47.384Z,10.52
2018-02-17T02:23:15.021Z,10.55
2018-02-17T02:25:42.653Z,10.50
2018-02-17T02:28:11.061Z,9.70
2018-02-17T02:30:38.656Z,10.57
2018-02-17T02:33:06.252Z,10.45
2018-02-17T02:35:33.884Z,9.88
2018-02-17T02:38:01.531Z,10.65
2018-02-17T02:40:29.123Z,11.38
2018-02-17T02:42:56.743Z,12.20
2018-02-17T02:45:24.372Z,11.57
2018-02-17T02:47:51.973Z,11.15
2018-02-17T02:50:19.598Z,11.35
2018-02-17T02:52:47.201Z,10.57
2018-02-17T02:55:14.900Z,11.10
2018-02-17T02:57:42.494Z,10.43
2018-02-17T03:00:10.122Z,12.23
2018-02-17T03:02:38.488Z,11.40
2018-02-17T03:05:06.889Z,12.98
2018-02-17T03:07:34.565Z,13.00
2018-02-17T03:10:02.160Z,11.18
2018-02-17T03:12:29.780Z,11.55
2018-02-17T03:14:57.374Z,12.75
2018-02-17T03:17:24.988Z,12.10
2018-02-17T03:19:53.344Z,11.88
2018-02-17T03:22:21.705Z,12.82
2018-02-17T03:24:50.113Z,14.13
2018-02-17T03:27:17.708Z,13.02
2018-02-17T03:29:45.316Z,13.20
2018-02-17T03:32:12.940Z,12.75
2018-02-17T03:34:40.555Z,12.15
2018-02-17T03:37:08.949Z,13.27
2018-02-17T03:39:36.548Z,13.65
2018-02-17T03:42:04.172Z,12.90
2018-02-17T03:44:31.768Z,13.98
2018-02-17T03:47:00.132Z,12.75
2018-02-17T03:49:28.520Z,13.90
2018-02-17T03:51:56.121Z,13.30
2018-02-17T03:54:23.744Z,12.77
2018-02-17T03:56:51.378Z,13.75
2018-02-17T03:59:18.969Z,13.52
2018-02-17T04:01:47.328Z,12.98
2018-02-17T04:04:15.717Z,14.05
2018-02-17T04:06:43.309Z,13.90
2018-02-17T04:09:10.961Z,14.27
2018-02-17T04:11:38.596Z,15.30
2018-02-17T04:14:06.184Z,13.45
2018-02-17T04:16:34.546Z,14.65
2018-02-17T04:19:02.929Z,13.60
2018-02-17T04:21:30.537Z,14.63
2018-02-17T04:23:58.157Z,15.05
2018-02-17T04:26:25.748Z,14.65
2018-02-17T04:28:54.159Z,14.50
2018-02-17T04:31:21.755Z,14.32
2018-02-17T04:33:50.148Z,13.88
2018-02-17T04:36:17.744Z,14.60
2018-02-17T04:38:45.337Z,14.93
2018-02-17T04:44:14.064Z,14.95
2018-02-17T04:46:42.303Z,14.40
2018-02-17T04:49:11.835Z,14.50
2018-02-17T04:54:45.332Z,15.18
2018-02-17T04:57:30.738Z,14.65
2018-02-17T05:00:04.097Z,14.52
2018-02-17T05:02:32.513Z,15.60
2018-02-17T05:05:01.696Z,16.40
2018-02-17T05:07:30.658Z,16.45
2018-02-17T05:09:58.279Z,14.77
2018-02-17T05:12:25.868Z,16.17
2018-02-17T05:14:56.223Z,16.33
2018-02-17T05:17:29.524Z,17.37
2018-02-17T05:20:03.875Z,16.50
2018-02-17T05:22:31.472Z,16.80
2018-02-17T05:25:17.766Z,19.25
2018-02-17T05:28:03.209Z,17.92
2018-02-17T05:30:41.695Z,19.12
2018-02-17T05:33:12.957Z,20.37
2018-02-17T05:38:46.848Z,20.30
2018-02-17T05:41:14.478Z,18.87
2018-02-17T05:43:42.125Z,18.58
2018-02-17T05:46:17.284Z,17.00
2018-02-17T05:48:48.340Z,19.20
2018-02-17T05:51:15.944Z,18.55
2018-02-17T05:53:43.570Z,18.50
2018-02-17T05:56:11.161Z,17.67
2018-02-17T05:58:38.785Z,16.55
2018-02-17T06:01:06.400Z,15.95
2018-02-17T06:03:34.032Z,15.85
2018-02-17T06:06:01.628Z,16.87
2018-02-17T06:08:29.985Z,15.45
2018-02-17T06:10:57.613Z,16.67
2018-02-17T06:13:25.209Z,18.42
2018-02-17T06:15:52.805Z,17.92
2018-02-17T06:18:20.425Z,17.08
2018-02-17T06:20:48.020Z,17.62
2018-02-17T06:23:16.447Z,16.02
2018-02-17T06:25:44.065Z,18.48
2018-02-17T06:28:11.715Z,17.67
2018-02-17T06:30:39.319Z,16.98
2018-02-17T06:33:07.673Z,16.60
2018-02-17T06:35:35.289Z,19.12
2018-02-17T06:38:02.886Z,17.48
2018-02-17T06:40:30.519Z,16.27
2018-02-17T06:42:58.889Z,16.80
2018-02-17T06:45:27.244Z,17.12
2018-02-17T06:47:55.633Z,17.10
2018-02-17T06:50:23.256Z,16.62
2018-02-17T06:52:51.619Z,18.37
2018-02-17T06:55:19.984Z,17.00
2018-02-17T06:57:48.363Z,15.30
2018-02-17T07:00:15.968Z,16.00
2018-02-17T07:02:43.605Z,18.00
2018-02-17T07:05:11.191Z,17.20
2018-02-17T07:07:39.589Z,17.00
2018-02-17T07:10:07.208Z,17.20
2018-02-17T07:12:34.824Z,18.12
2018-02-17T07:15:02.456Z,17.90
2018-02-17T07:17:30.104Z,16.65
2018-02-17T07:19:57.704Z,18.37
2018-02-17T07:22:25.328Z,18.40
2018-02-17T07:24:53.696Z,16.77
2018-02-17T07:27:22.128Z,17.15
2018-02-17T07:29:49.724Z,17.60
2018-02-17T07:32:17.354Z,19.40
2018-02-17T07:34:44.957Z,17.83
2018-02-17T07:37:12.581Z,18.20
2018-02-17T07:39:40.196Z,18.52
2018-02-17T07:42:08.606Z,17.83
2018-02-17T07:44:36.204Z,16.62
2018-02-17T07:47:04.729Z,17.10
2018-02-17T07:49:32.324Z,18.55
2018-02-17T07:51:59.964Z,17.87
2018-02-17T07:54:27.560Z,16.15
2018-02-17T07:56:55.155Z,15.48
2018-02-17T07:59:22.775Z,18.27
2018-02-17T08:01:50.363Z,17.52
2018-02-17T08:04:17.985Z,17.50
2018-02-17T08:06:46.344Z,17.83
2018-02-17T08:09:14.716Z,16.90
2018-02-17T08:11:42.361Z,15.63
2018-02-17T08:14:10.009Z,15.20
2018-02-17T08:16:37.637Z,17.60
2018-02-17T08:19:11.018Z,16.73
2018-02-17T08:21:38.952Z,16.42
2018-02-17T08:24:06.581Z,16.37
2018-02-17T08:26:34.209Z,16.48
2018-02-17T08:29:01.853Z,15.00
2018-02-17T08:31:29.470Z,16.70
2018-02-17T08:33:57.118Z,16.95
2018-02-17T08:36:24.714Z,17.50
2018-02-17T08:38:52.381Z,16.90
2018-02-17T08:41:20.787Z,17.10
2018-02-17T08:43:48.413Z,16.52
2018-02-17T08:46:16.056Z,17.55
2018-02-17T08:48:44.466Z,15.98
2018-02-17T08:51:12.069Z,17.33
2018-02-17T08:53:39.706Z,16.00
2018-02-17T08:56:08.064Z,15.13
2018-02-17T08:58:36.449Z,15.75
2018-02-17T09:01:04.144Z,14.15
2018-02-17T09:03:31.757Z,16.73
2018-02-17T09:05:59.446Z,17.37
2018-02-17T09:08:27.044Z,16.30
2018-02-17T09:10:54.677Z,16.30
2018-02-17T09:13:22.282Z,17.60
2018-02-17T09:15:49.919Z,17.40
2018-02-17T09:18:17.557Z,17.25
2018-02-17T09:20:45.156Z,16.35
2018-02-17T09:23:13.578Z,16.12
2018-02-17T09:25:41.180Z,17.42
2018-02-17T09:28:08.784Z,17.08
2018-02-17T09:30:36.436Z,14.15
2018-02-17T09:33:04.810Z,15.05
2018-02-17T09:35:33.204Z,14.65
2018-02-17T09:38:00.940Z,15.00
2018-02-17T09:40:28.564Z,15.95
2018-02-17T09:42:56.925Z,15.35
2018-02-17T09:45:24.564Z,13.57
2018-02-17T09:47:52.164Z,15.13
2018-02-17T09:50:19.768Z,15.15
2018-02-17T09:52:48.160Z,13.55
2018-02-17T09:55:15.958Z,13.65
2018-02-17T09:57:43.604Z,13.27
2018-02-17T10:00:11.204Z,12.80
2018-02-17T10:02:38.804Z,13.55
2018-02-17T10:05:06.432Z,14.20
2018-02-17T10:07:34.027Z,13.35
2018-02-17T10:10:02.422Z,13.90
2018-02-17T10:12:30.025Z,13.15
2018-02-17T10:14:58.416Z,12.90
2018-02-17T10:17:26.028Z,14.20
2018-02-17T10:19:53.677Z,12.52
2018-02-17T10:22:22.046Z,11.95
2018-02-17T10:24:50.420Z,12.10
2018-02-17T10:27:18.814Z,13.05
2018-02-17T10:29:46.417Z,11.45
2018-02-17T10:32:14.062Z,11.52
2018-02-17T10:34:41.664Z,10.98
2018-02-17T10:37:09.264Z,10.90
2018-02-17T10:39:37.676Z,11.73
2018-02-17T10:42:05.284Z,11.52
2018-02-17T10:44:33.652Z,10.23
2018-02-17T10:47:01.285Z,13.02
2018-02-17T10:49:29.677Z,11.70
2018-02-17T10:51:57.304Z,12.75
2018-02-17T10:54:25.796Z,12.07
2018-02-17T10:56:53.425Z,11.00
2018-02-17T10:59:21.033Z,11.55
2018-02-17T11:01:48.671Z,10.90
2018-02-17T11:04:16.280Z,10.85
2018-02-17T11:06:43.888Z,11.48
2018-02-17T11:09:11.520Z,11.00
2018-02-17T11:11:39.125Z,11.77
2018-02-17T11:14:06.748Z,11.02
2018-02-17T11:16:34.350Z,10.38
2018-02-17T11:19:01.974Z,9.10
2018-02-17T11:21:29.572Z,9.88
2018-02-17T11:29:51.884Z,8.57
2018-02-17T11:32:19.485Z,9.32
2018-02-17T11:34:47.081Z,7.72
2018-02-17T11:40:46.736Z,8.95
2018-02-17T11:46:26.651Z,12.10
2018-02-17T11:48:54.297Z,11.38
2018-02-17T11:51:21.895Z,9.30
2018-02-17T11:53:49.517Z,9.07
2018-02-17T11:56:17.887Z,6.70
2018-02-17T11:58:46.301Z,7.55
2018-02-17T12:01:14.063Z,6.85
2018-02-17T12:03:41.664Z,5.95
2018-02-17T12:06:09.284Z,7.75
2018-02-17T12:08:37.670Z,6.70
2018-02-17T12:11:05.304Z,6.85
2018-02-17T12:13:32.911Z,6.05
2018-02-17T12:16:00.512Z,7.40
2018-02-17T12:18:28.133Z,8.80
2018-02-17T12:20:56.500Z,10.27
2018-02-17T12:23:24.898Z,11.98
2018-02-17T12:25:52.496Z,11.65
2018-02-17T12:28:20.137Z,11.27
2018-02-17T12:30:47.736Z,10.30
2018-02-17T12:33:15.364Z,10.70
2018-02-17T12:35:42.981Z,11.12
2018-02-17T12:38:10.605Z,9.85
2018-02-17T12:40:38.229Z,10.35
2018-02-17T12:43:05.832Z,9.27
2018-02-17T12:45:34.232Z,9.95
2018-02-17T12:48:02.953Z,10.05
2018-02-17T12:50:30.616Z,9.90
2018-02-17T12:52:58.985Z,9.00
2018-02-17T12:55:27.340Z,9.27
2018-02-17T12:57:55.040Z,10.05
2018-02-17T13:00:22.652Z,9.02
2018-02-17T13:02:51.013Z,8.40
2018-02-17T13:05:19.443Z,8.90
2018-02-17T13:07:47.065Z,11.00
2018-02-17T13:10:14.689Z,9.93
2018-02-17T13:13:14.383Z,11.00
2018-02-17T13:21:39.263Z,10.00
2018-02-17T13:24:07.886Z,8.80
2018-02-17T13:29:47.735Z,8.70
2018-02-17T13:35:43.341Z,11.63
2018-02-17T13:41:42.543Z,9.65
2018-02-17T13:44:10.186Z,9.15
2018-02-17T13:46:37.789Z,9.48
2018-02-17T13:49:05.536Z,8.60
2018-02-17T13:51:33.128Z,7.75
2018-02-17T13:54:00.735Z,8.35
2018-02-17T13:56:28.352Z,8.07
2018-02-17T13:58:55.956Z,8.82
2018-02-17T14:01:24.344Z,8.25
2018-02-17T14:03:51.936Z,7.80
2018-02-17T14:06:19.557Z,6.65
2018-02-17T14:08:47.199Z,8.27
2018-02-17T14:11:14.804Z,7.78
2018-02-17T14:13:43.168Z,7.72
2018-02-17T14:16:11.580Z,6.90
2018-02-17T14:18:39.350Z,6.50
2018-02-17T14:21:06.944Z,6.65
2018-02-17T14:23:34.548Z,6.40
2018-02-17T14:26:02.171Z,6.35
2018-02-17T14:28:29.772Z,6.72
2018-02-17T14:30:57.451Z,6.32
2018-02-17T14:33:25.046Z,5.15
2018-02-17T14:35:53.436Z,5.80
2018-02-17T14:38:21.033Z,6.28
2018-02-17T14:40:48.668Z,5.97
2018-02-17T14:43:16.291Z,5.35
2018-02-17T14:45:43.929Z,5.87
2018-02-17T14:48:11.528Z,5.65
2018-02-17T14:50:39.141Z,6.20
2018-02-17T14:53:06.764Z,5.68
2018-02-17T14:55:34.411Z,6.03
2018-02-17T14:58:02.781Z,7.07
2018-02-17T15:00:30.378Z,6.15
2018-02-17T15:02:58.128Z,5.85
2018-02-17T15:05:25.733Z,6.03
2018-02-17T15:07:53.329Z,5.37
2018-02-17T15:10:21.725Z,6.55
2018-02-17T15:12:49.432Z,5.50
2018-02-17T15:15:17.177Z,5.93
2018-02-17T15:17:44.876Z,5.80
2018-02-17T15:20:12.535Z,5.65
2018-02-17T15:22:40.216Z,5.37
2018-02-17T15:25:07.879Z,5.80
2018-02-17T15:27:35.501Z,5.28
2018-02-17T15:30:03.270Z,5.25
2018-02-17T15:32:30.893Z,5.60
2018-02-17T15:34:58.496Z,5.95
2018-02-17T15:37:26.121Z,5.00
2018-02-17T15:39:54.497Z,4.80
2018-02-17T15:42:22.123Z,4.28
2018-02-17T15:44:49.745Z,3.85
2018-02-17T15:47:17.336Z,4.07
2018-02-17T15:49:45.721Z,4.00
2018-02-17T15:52:13.327Z,4.15
2018-02-17T15:54:40.972Z,3.78
2018-02-17T15:57:08.576Z,3.33
2018-02-17T15:59:36.177Z,2.62
2018-02-17T16:02:04.572Z,2.92
2018-02-17T16:04:32.184Z,3.30
2018-02-17T16:07:00.589Z,3.37
2018-02-17T16:09:28.195Z,2.85
2018-02-17T16:11:56.565Z,2.80
2018-02-17T16:14:24.968Z,3.28
2018-02-17T16:16:52.560Z,3.40
2018-02-17T16:19:20.864Z,3.50
2018-02-17T16:21:48.533Z,4.18
2018-02-17T16:24:16.218Z,4.10
2018-02-17T16:26:43.808Z,4.28
2018-02-17T16:29:11.444Z,3.58
2018-02-17T16:31:39.044Z,3.30
2018-02-17T16:34:06.656Z,3.35
2018-02-17T16:36:34.344Z,3.55
2018-02-17T16:39:01.938Z,3.10
2018-02-17T16:41:29.553Z,3.40
2018-02-17T16:43:57.937Z,3.20
2018-02-17T16:46:25.535Z,3.42
2018-02-17T16:48:53.153Z,3.30
2018-02-17T16:51:20.757Z,2.90
2018-02-17T16:53:48.377Z,3.33
2018-02-17T16:56:16.136Z,3.30
2018-02-17T16:58:43.810Z,3.20
2018-02-17T17:01:12.219Z,3.15
2018-02-17T17:03:39.826Z,3.58
2018-02-17T17:06:08.220Z,4.60
2018-02-17T17:08:35.824Z,4.90
2018-02-17T17:11:03.450Z,4.05
2018-02-17T17:13:31.196Z,4.55
2018-02-17T17:15:58.793Z,4.82
2018-02-17T17:18:26.413Z,4.30
2018-02-17T17:20:54.782Z,4.05
2018-02-17T17:23:23.191Z,3.92
2018-02-17T17:25:50.788Z,3.40
2018-02-17T17:28:18.511Z,3.00
2018-02-17T17:30:46.128Z,2.97
2018-02-17T17:33:13.725Z,3.12
2018-02-17T17:35:42.593Z,2.62
2018-02-17T17:38:10.960Z,2.95
2018-02-17T17:40:38.581Z,2.67
2018-02-17T17:43:06.172Z,3.55
2018-02-17T17:45:34.561Z,3.50
2018-02-17T17:48:02.197Z,3.17
2018-02-17T17:50:29.841Z,3.35
2018-02-17T17:52:57.548Z,3.92
2018-02-17T17:55:25.144Z,4.32
2018-02-17T17:57:52.830Z,4.28
2018-02-17T18:00:20.429Z,4.15
2018-02-17T18:02:48.049Z,4.50
2018-02-17T18:05:16.414Z,4.43
2018-02-17T18:07:44.824Z,4.65
2018-02-17T18:10:12.503Z,4.78
2018-02-17T18:12:40.099Z,4.60
2018-02-17T18:15:07.724Z,4.75
2018-02-17T18:17:36.163Z,4.87
2018-02-17T18:20:03.787Z,3.60
2018-02-17T18:22:31.380Z,4.55
2018-02-17T18:24:59.776Z,5.10
2018-02-17T18:27:27.377Z,4.97
2018-02-17T18:29:55.006Z,4.72
2018-02-17T18:32:22.736Z,4.72
2018-02-17T18:34:50.459Z,5.40
2018-02-17T18:37:18.121Z,5.55
2018-02-17T18:39:45.769Z,6.45
2018-02-17T18:42:13.452Z,5.27
2018-02-17T18:44:41.097Z,5.85
2018-02-17T18:47:08.692Z,6.12
2018-02-17T18:49:36.356Z,6.40
2018-02-17T18:52:03.960Z,6.45
2018-02-17T18:54:32.348Z,6.75
2018-02-17T18:56:59.948Z,6.75
2018-02-17T18:59:27.595Z,7.30
2018-02-17T19:01:55.264Z,7.55
2018-02-17T19:04:23.633Z,7.23
2018-02-17T19:06:52.353Z,7.05
2018-02-17T19:09:20.323Z,7.30
2018-02-17T19:11:48.048Z,6.32
2018-02-17T19:14:15.663Z,6.65
2018-02-17T19:16:44.639Z,6.65
2018-02-17T19:19:13.661Z,6.87
2018-02-17T19:21:41.291Z,6.97
2018-02-17T19:24:08.981Z,7.70
2018-02-17T19:26:36.576Z,6.62
2018-02-17T19:29:04.207Z,7.60
2018-02-17T19:31:32.608Z,8.17
2018-02-17T19:34:00.204Z,8.35
2018-02-17T19:36:27.857Z,8.77
2018-02-17T19:38:56.316Z,8.38
2018-02-17T19:41:24.709Z,8.60
2018-02-17T19:43:52.341Z,7.65
2018-02-17T19:46:20.750Z,7.43
2018-02-17T19:48:48.418Z,7.93
2018-02-17T19:51:16.015Z,7.53
2018-02-17T19:53:43.640Z,8.40
2018-02-17T19:56:12.004Z,7.80
2018-02-17T19:58:40.393Z,7.78
2018-02-17T20:01:08.020Z,7.72
2018-02-17T20:03:36.389Z,8.80
2018-02-17T20:06:04.785Z,7.78
2018-02-17T20:08:32.384Z,7.50
2018-02-17T20:11:00.008Z,9.38
2018-02-17T20:13:27.772Z,8.13
2018-02-17T20:15:55.518Z,8.75
2018-02-17T20:18:23.169Z,8.85
2018-02-17T20:20:50.804Z,8.77
2018-02-17T20:23:18.429Z,8.00
2018-02-17T20:25:46.068Z,8.57
2018-02-17T20:28:13.853Z,9.32
2018-02-17T20:30:41.605Z,8.27
2018-02-17T20:33:09.220Z,8.70
2018-02-17T20:35:36.885Z,8.00
2018-02-17T20:38:04.587Z,8.10
2018-02-17T20:40:32.224Z,8.48
2018-02-17T20:43:00.589Z,9.45
2018-02-17T20:45:32.763Z,8.60
2018-02-17T20:48:00.802Z,8.65
2018-02-17T20:50:33.157Z,8.45
2018-02-17T20:53:01.282Z,8.60
2018-02-17T20:55:29.850Z,8.13
2018-02-17T20:57:57.490Z,9.50
2018-02-17T21:00:25.149Z,8.70
2018-02-17T21:02:52.953Z,9.50
2018-02-17T21:05:21.284Z,9.02
2018-02-17T21:07:49.745Z,8.88
2018-02-17T21:10:18.288Z,9.00
2018-02-17T21:12:45.896Z,8.18
2018-02-17T21:15:13.521Z,8.90
2018-02-17T21:17:41.247Z,8.13
2018-02-17T21:20:09.664Z,8.65
2018-02-17T21:22:37.362Z,7.45
2018-02-17T21:25:05.753Z,7.30
2018-02-17T21:27:33.436Z,8.18
2018-02-17T21:30:01.102Z,8.10
2018-02-17T21:32:28.736Z,8.30
2018-02-17T21:34:56.354Z,7.97
2018-02-17T21:37:24.003Z,8.63
2018-02-17T21:39:51.894Z,7.60
2018-02-17T21:42:19.533Z,7.95
2018-02-17T21:44:47.132Z,8.32
2018-02-17T21:47:14.761Z,7.90
2018-02-17T21:49:45.576Z,7.60
2018-02-17T21:52:13.988Z,7.95
2018-02-17T21:54:41.591Z,8.30
2018-02-17T21:57:15.476Z,7.57
2018-02-17T21:59:43.113Z,7.03
2018-02-17T22:02:10.728Z,8.02
2018-02-17T22:04:38.362Z,8.18
2018-02-17T22:07:05.968Z,8.50
2018-02-17T22:09:34.364Z,7.78
2018-02-17T22:12:01.965Z,8.02
2018-02-17T22:14:30.447Z,8.80
2018-02-17T22:16:58.072Z,8.10
2018-02-17T22:19:25.677Z,9.57
2018-02-17T22:21:53.505Z,8.50
2018-02-17T22:24:21.162Z,9.88
2018-02-17T22:26:49.617Z,9.15
2018-02-17T22:29:17.333Z,9.00
2018-02-17T22:31:44.957Z,9.05
2018-02-17T22:34:12.646Z,9.05
2018-02-17T22:36:41.008Z,9.10
2018-02-17T22:39:09.559Z,10.13
2018-02-17T22:41:37.164Z,8.68
2018-02-17T22:44:04.848Z,8.73
2018-02-17T22:46:32.453Z,9.80
2018-02-17T22:49:00.145Z,9.73
2018-02-17T22:51:27.772Z,9.65
2018-02-17T22:53:55.364Z,9.82
2018-02-17T22:56:23.812Z,10.18
2018-02-17T22:58:52.193Z,10.30
2018-02-17T23:01:20.608Z,10.27
2018-02-17T23:03:48.252Z,10.60
2018-02-17T23:06:15.857Z,10.68
2018-02-17T23:08:44.964Z,10.90
2018-02-17T23:11:12.651Z,9.88
2018-02-17T23:13:40.509Z,10.95
2018-02-17T23:16:08.117Z,10.73
2018-02-17T23:18:35.720Z,10.02
2018-02-17T23:21:04.264Z,11.12
2018-02-17T23:23:31.875Z,11.45
2018-02-17T23:25:59.535Z,10.82
2018-02-17T23:28:27.146Z,10.18
2018-02-17T23:30:54.829Z,10.60
2018-02-17T23:33:23.043Z,10.88
2018-02-17T23:35:52.217Z,10.57
2018-02-17T23:38:19.852Z,10.48
2018-02-17T23:40:48.233Z,10.52
2018-02-17T23:43:16.620Z,11.05
2018-02-17T23:45:47.545Z,10.00
2018-02-17T23:48:15.187Z,10.15
2018-02-17T23:50:42.788Z,9.95
2018-02-17T23:53:10.384Z,9.73
2018-02-17T23:55:38.014Z,9.65
2018-02-17T23:58:06.387Z,10.55
